»·PEaware :: N214EL KVNY-KWJF

N214EL :: KVNY-KWJF

FLIGHT INFORMATION

Flight Status: Arrived
Operator: Privately registered:
United States
More flights under this callsign
Pilot: Mark S. (16827)
Aircraft: CESSNA T210 TURBO CENTURION
(T210)
More flights by this aircraft type
Origin: KVNY Van Nuys
United States
Destination: KWJF Gen Fox
United States
More flights between these airports :: More routes between these airports
Route: NUAL1 PMD
File this flight plan on PilotEdge
Remarks:
Altitude:
(Current/Filed)
7,000ft
Speed:
(Current/Filed)
165kts
Departed: 30-Jan-21 04:57 PM
Arrived: 30-Jan-21 05:40 PM
Distance/Time
Traveled:
35nm/0:43
Distance/Time
To Go:
Arrived

Flight Plot

Page will automatically refresh every two minutes.

Flight plan parsing failed; only flown route is shown


Map Options




Map Legend


Flown Route
Filed Route
Departure Airport
Arrival Airport
Navaid (VOR, NDB)
Fix

Horizontal Profiles

Position Reports

Time Latitude Longitude Heading Altitude Ground
Speed
30-Jan-21 16:04 34.203403 -118.491461 172 805ft 0kts
30-Jan-21 16:05 34.203403 -118.491461 172 805ft 0kts
30-Jan-21 16:06 34.203403 -118.491461 172 805ft 0kts
30-Jan-21 16:07 34.203403 -118.491461 172 805ft 0kts
30-Jan-21 16:08 34.203403 -118.491461 172 805ft 0kts
30-Jan-21 16:09 34.203403 -118.491461 172 805ft 0kts
30-Jan-21 16:10 34.203403 -118.491461 172 805ft 0kts
30-Jan-21 16:11 34.203403 -118.491461 172 805ft 0kts
30-Jan-21 16:12 34.203403 -118.491461 172 805ft 0kts
30-Jan-21 16:13 34.203403 -118.491461 172 805ft 0kts
30-Jan-21 16:14 34.203403 -118.491461 172 805ft 0kts
30-Jan-21 16:15 34.203403 -118.491461 172 805ft 0kts
30-Jan-21 16:16 34.203403 -118.491461 172 805ft 0kts
30-Jan-21 16:17 34.203403 -118.491461 172 805ft 0kts
30-Jan-21 16:18 34.203403 -118.491461 172 805ft 0kts
30-Jan-21 16:20 34.203403 -118.491461 172 805ft 0kts
30-Jan-21 16:21 34.203403 -118.491461 172 805ft 0kts
30-Jan-21 16:22 34.203403 -118.491461 172 805ft 0kts
30-Jan-21 16:23 34.203403 -118.491461 172 805ft 0kts
30-Jan-21 16:24 34.203403 -118.491461 172 805ft 0kts
30-Jan-21 16:25 34.203403 -118.491461 172 805ft 0kts
30-Jan-21 16:26 34.203403 -118.491461 172 805ft 0kts
30-Jan-21 16:27 34.203403 -118.491461 172 805ft 0kts
30-Jan-21 16:28 34.203403 -118.491461 172 805ft 0kts
30-Jan-21 16:29 34.203403 -118.491461 172 805ft 0kts
30-Jan-21 16:30 34.203403 -118.491461 172 805ft 0kts
30-Jan-21 16:31 34.203403 -118.491461 172 805ft 0kts
30-Jan-21 16:32 34.203403 -118.491461 172 805ft 0kts
30-Jan-21 16:33 34.203403 -118.491461 172 805ft 0kts
30-Jan-21 16:34 34.203403 -118.491461 172 805ft 0kts
30-Jan-21 16:34 34.203403 -118.491461 172 805ft 0kts
30-Jan-21 16:36 34.203403 -118.491461 172 805ft 0kts
30-Jan-21 16:37 34.203403 -118.491461 172 805ft 0kts
30-Jan-21 16:37 34.203403 -118.491461 172 805ft 0kts
30-Jan-21 16:38 34.203403 -118.491461 172 805ft 0kts
30-Jan-21 16:39 34.203648 -118.491143 17 805ft 8kts
30-Jan-21 16:41 34.208411 -118.491408 356 805ft 17kts
30-Jan-21 16:41 34.212100 -118.491766 356 805ft 16kts
30-Jan-21 16:42 34.217170 -118.492228 357 805ft 15kts
30-Jan-21 16:43 34.219239 -118.492214 117 805ft 0kts
30-Jan-21 16:44 34.219239 -118.492214 117 805ft 0kts
30-Jan-21 16:45 34.219239 -118.492214 117 805ft 0kts
30-Jan-21 16:46 34.219239 -118.492214 117 805ft 0kts
30-Jan-21 16:47 34.219239 -118.492214 117 805ft 0kts
30-Jan-21 16:48 34.219239 -118.492214 117 805ft 0kts
30-Jan-21 16:49 34.219239 -118.492214 117 805ft 0kts
30-Jan-21 16:50 34.219239 -118.492214 117 805ft 0kts
30-Jan-21 16:51 34.219239 -118.492214 117 805ft 0kts
30-Jan-21 16:52 34.219239 -118.492214 117 805ft 0kts
30-Jan-21 16:53 34.219239 -118.492214 117 805ft 0kts
30-Jan-21 16:54 34.219239 -118.492214 117 805ft 0kts
30-Jan-21 16:55 34.219165 -118.492079 129 805ft 7kts
30-Jan-21 16:56 34.212261 -118.490569 174 870ft 89kts
30-Jan-21 16:57 34.184183 -118.486645 148 1931ft 105kts
30-Jan-21 16:58 34.166052 -118.458218 124 3021ft 109kts
30-Jan-21 16:59 34.149174 -118.427828 123 4074ft 110kts
30-Jan-21 17:00 34.132513 -118.397266 124 4998ft 113kts
30-Jan-21 17:01 34.111285 -118.360658 112 5026ft 143kts
30-Jan-21 17:02 34.112662 -118.313489 49 5224ft 140kts
30-Jan-21 17:03 34.149587 -118.316220 351 5951ft 135kts
30-Jan-21 17:04 34.186802 -118.325695 352 6801ft 137kts
30-Jan-21 17:05 34.226567 -118.336089 350 6996ft 154kts
30-Jan-21 17:06 34.269327 -118.347361 350 6987ft 161kts
30-Jan-21 17:07 34.312929 -118.358905 351 7019ft 161kts
30-Jan-21 17:08 34.357192 -118.370187 350 6996ft 161kts
30-Jan-21 17:09 34.397733 -118.362121 45 6979ft 157kts
30-Jan-21 17:10 34.427687 -118.324110 48 7004ft 154kts
30-Jan-21 17:11 34.457695 -118.286604 47 6991ft 155kts
30-Jan-21 17:12 34.487720 -118.249494 47 7011ft 155kts
30-Jan-21 17:13 34.517086 -118.211128 50 6998ft 155kts
30-Jan-21 17:14 34.539594 -118.167573 79 6950ft 156kts
30-Jan-21 17:15 34.545233 -118.116184 82 6974ft 154kts
30-Jan-21 17:16 34.551593 -118.064387 81 6949ft 155kts
30-Jan-21 17:17 34.557596 -118.012529 81 6935ft 156kts
30-Jan-21 17:18 34.563965 -117.960691 80 6959ft 156kts
30-Jan-21 17:19 34.570703 -117.908847 80 6971ft 155kts
30-Jan-21 17:20 34.577364 -117.856861 81 6981ft 155kts
30-Jan-21 17:21 34.584926 -117.805048 78 6984ft 156kts
30-Jan-21 17:22 34.595015 -117.753913 81 6992ft 155kts
30-Jan-21 17:23 34.607715 -117.705557 27 7020ft 157kts
30-Jan-21 17:24 34.641898 -117.735012 310 7021ft 166kts
30-Jan-21 17:25 34.667733 -117.781545 307 6641ft 167kts
30-Jan-21 17:26 34.689132 -117.833135 290 6008ft 170kts
30-Jan-21 17:27 34.707192 -117.885755 294 5941ft 166kts
30-Jan-21 17:28 34.724093 -117.938097 285 5908ft 168kts
30-Jan-21 17:29 34.732594 -117.994283 277 5362ft 169kts
30-Jan-21 17:30 34.739322 -118.051116 277 4599ft 171kts
30-Jan-21 17:31 34.745066 -118.108520 278 3754ft 172kts
30-Jan-21 17:32 34.745665 -118.159094 273 3280ft 137kts
30-Jan-21 17:33 34.744061 -118.205578 267 2591ft 129kts
30-Jan-21 17:34 34.726079 -118.220225 124 3325ft 104kts
30-Jan-21 17:35 34.707839 -118.189270 118 3614ft 111kts
30-Jan-21 17:36 34.710225 -118.156349 28 3936ft 110kts
30-Jan-21 17:37 34.742085 -118.159910 352 4157ft 123kts
30-Jan-21 17:38 34.749140 -118.189849 243 3049ft 103kts
30-Jan-21 17:39 34.741772 -118.215804 253 2340ft 33kts
30-Jan-21 17:40 34.739913 -118.217998 156 2343ft 20kts
30-Jan-21 17:41 34.739021 -118.217185 70 2343ft 0kts
30-Jan-21 17:42 34.739021 -118.217185 70 2343ft 0kts
30-Jan-21 17:43 34.739021 -118.217185 70 2343ft 0kts
30-Jan-21 17:44 34.739021 -118.217185 70 2343ft 0kts
30-Jan-21 17:45 34.739021 -118.217185 70 2343ft 0kts
30-Jan-21 17:46 34.739021 -118.217185 70 2343ft 0kts
30-Jan-21 17:47 34.739021 -118.217185 70 2343ft 0kts
30-Jan-21 17:48 34.739021 -118.217185 70 2343ft 0kts
30-Jan-21 17:49 34.739021 -118.217185 70 2343ft 0kts
30-Jan-21 17:50 34.739021 -118.217185 70 2343ft 0kts
30-Jan-21 17:51 34.739021 -118.217185 70 2343ft 0kts
30-Jan-21 17:52 34.739021 -118.217185 70 2343ft 0kts
30-Jan-21 17:53 34.739021 -118.217185 70 2343ft 0kts

Navigation Log

Ident Type
Flight plan parsing failed, navigation log unavailable